Time;durP1;ratioP1;P1;durP2;ratioP2;P2;SDS_P1;SDS_P2;PMS_P1;PMS_P2;Temp;Humidity;BMP_temperature;BMP_pressure;BME280_temperature;BME280_humidity;BME280_pressure;Samples;Min_cycle;Max_cycle;Signal;HPM_P1;HPM_P2
2021/07/27 00:00:58;;;;;;;9.65;7.65;;;17.90;99.90;;;;;;5021660;28;20764;-75
2021/07/27 00:03:25;;;;;;;10.63;7.40;;;17.60;99.90;;;;;;5027111;28;20022;-74
2021/07/27 00:05:52;;;;;;;10.32;7.05;;;17.20;99.90;;;;;;5013179;28;20044;-74
2021/07/27 00:08:18;;;;;;;8.88;7.40;;;17.50;99.90;;;;;;5012653;28;20447;-75
2021/07/27 00:10:43;;;;;;;9.35;7.68;;;17.60;99.90;;;;;;5013836;28;20057;-74
2021/07/27 00:13:09;;;;;;;11.07;7.75;;;17.70;99.90;;;;;;5026036;28;20066;-74
2021/07/27 00:15:35;;;;;;;10.30;7.07;;;17.50;99.90;;;;;;5022493;28;20072;-76
2021/07/27 00:18:00;;;;;;;11.95;7.38;;;17.40;99.90;;;;;;5015766;28;20476;-76
2021/07/27 00:20:26;;;;;;;10.40;7.30;;;17.50;99.90;;;;;;5022227;28;20422;-75
2021/07/27 00:22:52;;;;;;;9.07;6.78;;;17.60;99.90;;;;;;5019870;28;20391;-76
2021/07/27 00:25:17;;;;;;;11.15;7.60;;;17.60;99.90;;;;;;5023848;28;20393;-76
2021/07/27 00:27:46;;;;;;;9.55;7.53;;;17.60;99.90;;;;;;5026780;28;20033;-75
2021/07/27 00:30:12;;;;;;;10.55;7.80;;;17.60;99.90;;;;;;5022176;28;20112;-75
2021/07/27 00:32:39;;;;;;;9.48;6.60;;;17.60;99.90;;;;;;5018738;28;20111;-74
2021/07/27 00:35:06;;;;;;;10.98;7.07;;;17.50;99.90;;;;;;5021985;28;20160;-74
2021/07/27 00:37:33;;;;;;;8.23;7.25;;;17.10;99.90;;;;;;5025703;28;20022;-75
2021/07/27 00:40:00;;;;;;;11.52;7.72;;;17.10;99.90;;;;;;5023032;28;20025;-75
2021/07/27 00:42:26;;;;;;;11.18;7.47;;;17.20;99.90;;;;;;5018941;28;20075;-75
2021/07/27 00:44:52;;;;;;;11.07;7.30;;;16.90;99.90;;;;;;5020430;28;20022;-75
2021/07/27 00:47:18;;;;;;;8.20;7.28;;;16.70;99.90;;;;;;5024313;28;20022;-75
2021/07/27 00:49:43;;;;;;;8.38;6.65;;;16.60;99.90;;;;;;5017016;28;20033;-75
2021/07/27 00:52:09;;;;;;;9.15;7.18;;;17.20;99.90;;;;;;5015045;28;20033;-76
2021/07/27 00:54:36;;;;;;;8.52;6.90;;;17.30;99.90;;;;;;5020407;28;20460;-74
2021/07/27 00:57:02;;;;;;;7.55;6.38;;;17.30;99.90;;;;;;5025110;28;20076;-74
2021/07/27 00:59:28;;;;;;;10.77;7.05;;;17.50;99.90;;;;;;5011635;28;20021;-74
2021/07/27 01:01:53;;;;;;;9.65;7.15;;;17.40;99.90;;;;;;5010614;28;20447;-74
2021/07/27 01:04:19;;;;;;;8.27;6.80;;;17.50;99.90;;;;;;5010305;28;20032;-74
2021/07/27 01:06:45;;;;;;;7.93;6.03;;;17.60;99.90;;;;;;5015078;28;20030;-75
2021/07/27 01:09:12;;;;;;;9.85;6.80;;;17.60;99.90;;;;;;5024808;28;20029;-74
2021/07/27 01:11:43;;;;;;;8.48;6.22;;;17.60;99.90;;;;;;5021546;28;20033;-76
2021/07/27 01:14:09;;;;;;;9.38;6.80;;;17.60;99.90;;;;;;5022078;28;20026;-76
2021/07/27 01:16:36;;;;;;;7.43;6.25;;;17.50;99.90;;;;;;5033686;28;20053;-77
2021/07/27 01:41:07;;;;;;;10.77;7.20;;;17.00;99.90;;;;;;5015747;28;20057;-73
2021/07/27 01:43:35;;;;;;;7.75;6.82;;;17.10;99.90;;;;;;5014953;28;20076;-73
2021/07/27 01:46:00;;;;;;;8.95;7.30;;;17.10;99.90;;;;;;5026925;28;20014;-73
2021/07/27 01:48:26;;;;;;;8.60;6.88;;;16.90;99.90;;;;;;5027899;28;20496;-74
2021/07/27 01:50:51;;;;;;;9.38;7.50;;;16.90;99.90;;;;;;5014321;28;20038;-75
2021/07/27 01:53:26;;;;;;;8.90;7.50;;;16.90;99.90;;;;;;5027671;28;20033;-75
2021/07/27 01:55:55;;;;;;;10.65;7.63;;;17.10;99.90;;;;;;5024272;28;20030;-75
2021/07/27 01:58:21;;;;;;;10.13;7.47;;;16.60;99.90;;;;;;5022870;28;20030;-75
2021/07/27 02:00:46;;;;;;;12.32;7.95;;;16.60;99.90;;;;;;5026995;28;20029;-75
2021/07/27 02:03:15;;;;;;;10.13;7.07;;;16.50;99.90;;;;;;5028940;28;20438;-75
2021/07/27 02:05:41;;;;;;;10.70;7.03;;;16.50;99.90;;;;;;5007392;28;20033;-76
2021/07/27 02:08:06;;;;;;;8.88;7.10;;;16.40;99.90;;;;;;5020691;28;20362;-77
2021/07/27 02:10:32;;;;;;;9.35;7.05;;;16.30;99.90;;;;;;5023702;28;20029;-76
2021/07/27 02:13:11;;;;;;;10.90;7.28;;;16.30;99.90;;;;;;5015339;28;20029;-74
2021/07/27 02:15:41;;;;;;;8.18;7.28;;;16.30;99.90;;;;;;5033676;28;20075;-74
2021/07/27 02:18:07;;;;;;;9.57;7.38;;;16.20;99.90;;;;;;5020297;28;20392;-75
2021/07/27 02:20:33;;;;;;;7.65;6.88;;;16.20;99.90;;;;;;5022987;28;20076;-75
2021/07/27 02:22:58;;;;;;;11.50;7.05;;;16.30;99.90;;;;;;5028687;28;20022;-75
2021/07/27 02:25:24;;;;;;;8.75;7.07;;;16.20;99.90;;;;;;5013799;28;20069;-74
2021/07/27 02:27:49;;;;;;;7.55;6.75;;;16.00;99.90;;;;;;5031721;28;20076;-74
2021/07/27 02:30:15;;;;;;;9.80;7.15;;;16.30;99.90;;;;;;5024346;28;20534;-75
2021/07/27 02:32:43;;;;;;;10.55;7.05;;;16.40;99.90;;;;;;5015326;28;20065;-75
2021/07/27 02:35:09;;;;;;;8.05;6.28;;;16.60;99.90;;;;;;5015100;28;20029;-76
2021/07/27 02:37:35;;;;;;;8.02;6.78;;;16.60;99.90;;;;;;5013673;28;20019;-76
2021/07/27 02:40:02;;;;;;;8.05;6.18;;;16.70;99.90;;;;;;5013565;28;20160;-76
2021/07/27 02:42:27;;;;;;;8.15;6.75;;;16.70;99.90;;;;;;5017641;28;20471;-74
2021/07/27 02:44:53;;;;;;;10.40;6.70;;;16.50;99.90;;;;;;5020961;28;20026;-76
2021/07/27 02:47:18;;;;;;;7.93;6.20;;;16.60;99.90;;;;;;5013356;28;20036;-76
2021/07/27 02:49:44;;;;;;;10.05;6.50;;;16.50;99.90;;;;;;5022514;28;20037;-76
2021/07/27 02:52:09;;;;;;;12.18;6.93;;;16.60;99.90;;;;;;5015536;28;20369;-76
2021/07/27 02:54:38;;;;;;;10.82;6.93;;;16.50;99.90;;;;;;5013258;28;20026;-76
2021/07/27 02:57:05;;;;;;;8.70;6.28;;;16.40;99.90;;;;;;5018092;28;20111;-75
2021/07/27 02:59:30;;;;;;;9.10;6.93;;;16.30;99.90;;;;;;5021351;28;20037;-76
2021/07/27 03:01:56;;;;;;;10.25;6.90;;;16.50;99.90;;;;;;5026416;28;20037;-75
2021/07/27 03:04:21;;;;;;;7.13;6.13;;;16.50;99.90;;;;;;5013053;28;20037;-76
2021/07/27 03:06:48;;;;;;;8.40;6.40;;;16.50;99.90;;;;;;5012881;28;20392;-75
2021/07/27 03:09:23;;;;;;;9.95;6.68;;;16.50;99.90;;;;;;5024679;28;20431;-74
2021/07/27 03:11:49;;;;;;;10.52;6.30;;;16.40;99.90;;;;;;5014272;28;20033;-75
2021/07/27 03:14:15;;;;;;;12.02;7.05;;;16.30;99.90;;;;;;5026717;28;20029;-75
2021/07/27 03:16:40;;;;;;;10.50;7.03;;;16.30;99.90;;;;;;5025310;28;20488;-75
2021/07/27 03:19:06;;;;;;;8.55;6.80;;;16.00;99.90;;;;;;5012820;28;20048;-76
2021/07/27 03:21:31;;;;;;;8.43;6.95;;;15.90;99.90;;;;;;5026076;28;20034;-76
2021/07/27 03:23:57;;;;;;;10.43;6.47;;;16.00;99.90;;;;;;5025656;28;20033;-75
2021/07/27 03:26:23;;;;;;;9.55;6.60;;;16.00;99.90;;;;;;5019084;28;20484;-74
2021/07/27 03:28:49;;;;;;;8.38;7.10;;;16.00;99.90;;;;;;5018785;28;20022;-74
2021/07/27 03:31:15;;;;;;;8.30;6.68;;;16.00;99.90;;;;;;5027645;28;20073;-74
2021/07/27 03:33:41;;;;;;;8.73;6.43;;;16.10;99.90;;;;;;5026897;28;20025;-75
2021/07/27 03:36:06;;;;;;;9.50;7.13;;;16.20;99.90;;;;;;5018809;28;20021;-74
2021/07/27 03:38:32;;;;;;;10.15;6.57;;;16.10;99.90;;;;;;5019060;28;20025;-75
2021/07/27 03:41:09;;;;;;;9.90;7.60;;;16.10;99.90;;;;;;5025751;28;20104;-75
2021/07/27 03:43:37;;;;;;;9.77;7.72;;;16.20;99.90;;;;;;5025608;28;20026;-76
2021/07/27 03:46:03;;;;;;;10.50;7.43;;;16.30;99.90;;;;;;5020382;28;20490;-77
2021/07/27 03:48:29;;;;;;;12.05;7.20;;;16.50;99.90;;;;;;5017431;28;20120;-76
2021/07/27 03:50:54;;;;;;;8.90;7.47;;;16.30;99.90;;;;;;5026773;28;20104;-76
2021/07/27 03:53:24;;;;;;;8.60;7.45;;;16.30;99.90;;;;;;5030539;28;20022;-76
2021/07/27 03:55:50;;;;;;;9.27;6.82;;;16.30;99.90;;;;;;5020251;28;20388;-76
2021/07/27 03:58:16;;;;;;;11.27;7.93;;;16.20;99.90;;;;;;5018621;28;20029;-76
2021/07/27 04:00:41;;;;;;;10.80;7.63;;;16.30;99.90;;;;;;5024229;28;20454;-76
2021/07/27 04:03:08;;;;;;;9.40;7.20;;;16.30;99.90;;;;;;5025462;28;20033;-76
2021/07/27 04:05:34;;;;;;;12.57;7.90;;;16.50;99.90;;;;;;5019692;28;20023;-75
2021/07/27 04:08:01;;;;;;;8.80;7.70;;;16.40;99.90;;;;;;5017733;28;20050;-74
2021/07/27 04:10:26;;;;;;;9.65;7.50;;;16.40;99.90;;;;;;5024402;28;20077;-74
2021/07/27 04:12:52;;;;;;;11.93;8.05;;;16.30;99.90;;;;;;5024156;28;20395;-76
2021/07/27 04:15:23;;;;;;;12.70;8.05;;;16.10;99.90;;;;;;5012154;28;20101;-76
2021/07/27 04:17:48;;;;;;;11.25;8.20;;;16.00;99.90;;;;;;5012137;28;20080;-77
2021/07/27 04:20:14;;;;;;;10.15;7.40;;;16.00;99.90;;;;;;5010679;28;20022;-76
2021/07/27 04:22:40;;;;;;;12.45;8.25;;;16.00;99.90;;;;;;5024108;28;20519;-76
2021/07/27 04:25:05;;;;;;;11.25;7.88;;;16.10;99.90;;;;;;5019906;28;20086;-76
2021/07/27 04:27:31;;;;;;;11.73;8.07;;;16.00;99.90;;;;;;5016006;28;20029;-76
2021/07/27 04:29:57;;;;;;;11.02;7.97;;;16.10;99.90;;;;;;5010735;28;20037;-76
2021/07/27 04:32:22;;;;;;;9.13;7.65;;;16.20;99.90;;;;;;5012327;28;20026;-75
2021/07/27 04:34:51;;;;;;;10.40;7.25;;;16.30;99.90;;;;;;5025570;28;20030;-74
2021/07/27 04:37:16;;;;;;;10.43;7.68;;;16.30;99.90;;;;;;5026820;28;20032;-74
2021/07/27 04:39:42;;;;;;;8.23;7.40;;;16.40;99.90;;;;;;5023924;28;20022;-75
2021/07/27 04:42:07;;;;;;;12.60;7.85;;;16.50;99.90;;;;;;5029615;28;20033;-76
2021/07/27 04:44:34;;;;;;;11.23;7.95;;;16.50;99.90;;;;;;5023574;28;20415;-75
2021/07/27 04:46:59;;;;;;;13.13;7.60;;;16.40;99.90;;;;;;5020817;28;20026;-76
2021/07/27 04:49:25;;;;;;;9.55;7.30;;;16.40;99.90;;;;;;5027409;28;20065;-75
2021/07/27 04:51:50;;;;;;;8.93;7.35;;;16.40;99.90;;;;;;5017422;28;20030;-74
2021/07/27 04:54:26;;;;;;;10.20;7.30;;;16.30;99.90;;;;;;5025626;28;20400;-74
2021/07/27 04:56:52;;;;;;;8.95;7.28;;;16.50;99.90;;;;;;5014192;28;20029;-74
2021/07/27 04:59:17;;;;;;;10.20;6.95;;;16.40;99.90;;;;;;5023942;28;20026;-74
2021/07/27 05:01:43;;;;;;;11.80;6.88;;;16.50;99.90;;;;;;5030933;28;20393;-72
2021/07/27 05:04:08;;;;;;;9.50;6.75;;;16.60;99.90;;;;;;5015336;28;20026;-73
2021/07/27 05:06:34;;;;;;;8.65;6.50;;;16.70;99.90;;;;;;5017013;28;20391;-74
2021/07/27 05:08:59;;;;;;;8.45;6.47;;;16.80;99.90;;;;;;5017568;28;20018;-73
2021/07/27 05:11:25;;;;;;;11.40;7.05;;;16.90;99.90;;;;;;5029769;28;20030;-73
2021/07/27 05:13:53;;;;;;;9.90;6.32;;;17.20;99.90;;;;;;5024500;28;20530;-73
2021/07/27 05:16:19;;;;;;;7.38;5.93;;;17.20;99.90;;;;;;5030444;28;20464;-72
2021/07/27 05:18:45;;;;;;;8.02;7.05;;;17.20;99.90;;;;;;5022777;28;20026;-74
2021/07/27 05:21:10;;;;;;;9.25;6.53;;;17.30;99.90;;;;;;5013694;28;20029;-74
2021/07/27 05:23:36;;;;;;;8.48;6.13;;;17.30;99.90;;;;;;5015036;28;20029;-73
2021/07/27 05:26:05;;;;;;;7.40;6.70;;;17.40;99.90;;;;;;5028214;28;20026;-74
2021/07/27 05:28:30;;;;;;;9.05;6.72;;;17.40;99.90;;;;;;5024366;28;20087;-73
2021/07/27 05:30:55;;;;;;;9.75;6.32;;;17.50;99.90;;;;;;5019961;28;20472;-74
2021/07/27 05:33:21;;;;;;;8.38;6.85;;;17.60;99.90;;;;;;5025692;28;20032;-74
2021/07/27 05:35:47;;;;;;;8.50;6.70;;;17.60;99.90;;;;;;5026974;28;20052;-75
2021/07/27 05:38:12;;;;;;;7.38;6.38;;;17.60;99.90;;;;;;5023965;28;20440;-75
2021/07/27 05:40:38;;;;;;;10.23;6.72;;;17.60;99.90;;;;;;5019232;28;20109;-75
2021/07/27 05:43:03;;;;;;;9.45;6.40;;;17.70;99.90;;;;;;5014487;28;20022;-75
2021/07/27 05:45:29;;;;;;;8.57;6.65;;;17.70;99.90;;;;;;5015110;28;20034;-75
2021/07/27 05:47:54;;;;;;;11.63;6.97;;;17.90;99.90;;;;;;5017478;28;20116;-74
2021/07/27 05:50:21;;;;;;;7.50;6.25;;;17.90;99.90;;;;;;5021374;28;20679;-73
2021/07/27 05:52:46;;;;;;;8.98;6.40;;;18.00;99.90;;;;;;5022882;28;20029;-72
2021/07/27 05:55:12;;;;;;;12.18;6.43;;;18.10;99.90;;;;;;5033948;28;20021;-73
2021/07/27 05:57:38;;;;;;;6.53;5.80;;;18.20;99.90;;;;;;5031428;28;20387;-74
2021/07/27 06:00:05;;;;;;;9.32;6.07;;;18.30;99.90;;;;;;5020886;28;20108;-73
2021/07/27 06:02:30;;;;;;;8.77;6.43;;;18.30;99.90;;;;;;5024899;28;20026;-73
2021/07/27 06:04:56;;;;;;;8.82;6.18;;;18.40;99.90;;;;;;5026157;28;20035;-74
2021/07/27 06:07:21;;;;;;;7.13;5.93;;;18.50;99.90;;;;;;5023252;28;20380;-76
2021/07/27 06:09:47;;;;;;;7.55;5.93;;;18.50;99.90;;;;;;5018376;28;20026;-74
2021/07/27 06:12:12;;;;;;;9.40;5.93;;;18.50;99.90;;;;;;5013986;28;20026;-74
2021/07/27 06:14:38;;;;;;;8.30;6.00;;;18.50;99.90;;;;;;5027001;28;20018;-74
2021/07/27 06:17:04;;;;;;;11.52;5.88;;;18.60;99.90;;;;;;5022611;28;20082;-74
2021/07/27 06:19:29;;;;;;;10.15;6.53;;;18.60;99.90;;;;;;5020302;28;20104;-74
2021/07/27 06:21:55;;;;;;;11.25;6.85;;;18.80;99.90;;;;;;5025610;28;20063;-74
2021/07/27 06:24:20;;;;;;;10.00;7.10;;;18.80;99.90;;;;;;5015284;28;20526;-73
2021/07/27 06:26:46;;;;;;;9.27;6.53;;;18.90;99.90;;;;;;5033514;28;20030;-74
2021/07/27 06:29:12;;;;;;;9.10;5.85;;;18.80;99.90;;;;;;5020257;28;20033;-74
2021/07/27 06:31:37;;;;;;;8.27;6.00;;;18.80;99.90;;;;;;5025574;28;20088;-74
2021/07/27 06:34:03;;;;;;;11.07;8.60;;;18.90;99.90;;;;;;5025907;28;20071;-74
2021/07/27 06:36:29;;;;;;;8.63;6.05;;;19.10;99.90;;;;;;5020236;28;20505;-74
2021/07/27 06:38:55;;;;;;;7.75;6.30;;;19.10;99.90;;;;;;5020053;28;20022;-74
2021/07/27 06:41:20;;;;;;;9.68;6.00;;;19.10;99.90;;;;;;5025323;28;20045;-74
2021/07/27 06:43:46;;;;;;;10.82;5.97;;;19.10;99.90;;;;;;5025893;28;20052;-74
2021/07/27 06:46:12;;;;;;;9.98;6.13;;;19.10;99.90;;;;;;5021512;28;20025;-74
2021/07/27 06:48:38;;;;;;;9.63;6.43;;;19.20;99.90;;;;;;5018350;28;20204;-72
2021/07/27 06:51:14;;;;;;;14.00;7.15;;;19.20;99.90;;;;;;5013312;28;20033;-73
2021/07/27 06:53:40;;;;;;;8.05;5.63;;;19.40;99.90;;;;;;5013228;28;20018;-73
2021/07/27 06:56:07;;;;;;;9.52;6.80;;;19.70;99.90;;;;;;5023070;28;20064;-73
2021/07/27 06:58:33;;;;;;;7.80;6.47;;;19.60;99.90;;;;;;5026248;28;20026;-73
2021/07/27 07:01:02;;;;;;;11.50;7.10;;;19.60;99.90;;;;;;5013179;28;20463;-73
2021/07/27 07:03:28;;;;;;;10.43;6.97;;;19.70;99.90;;;;;;5026299;28;20045;-73
2021/07/27 07:05:54;;;;;;;9.25;5.80;;;19.80;99.90;;;;;;5012884;28;20052;-73
2021/07/27 07:08:20;;;;;;;8.75;6.32;;;20.10;99.90;;;;;;5029722;28;20038;-73
2021/07/27 07:10:45;;;;;;;7.85;6.03;;;20.20;99.90;;;;;;5021240;28;20525;-73
2021/07/27 07:13:12;;;;;;;7.85;5.90;;;20.10;99.90;;;;;;5026193;28;20037;-72
2021/07/27 07:15:38;;;;;;;6.38;5.53;;;19.80;99.90;;;;;;5022938;28;20101;-72
2021/07/27 07:18:03;;;;;;;6.72;5.47;;;19.80;99.90;;;;;;5019325;28;20104;-72
2021/07/27 07:20:29;;;;;;;8.45;4.97;;;19.90;99.90;;;;;;5022357;28;20026;-72
2021/07/27 07:22:55;;;;;;;11.07;5.72;;;19.90;99.90;;;;;;5025860;28;20479;-72
2021/07/27 07:25:20;;;;;;;6.63;5.35;;;19.70;99.90;;;;;;5012667;28;20030;-72
2021/07/27 07:27:46;;;;;;;7.20;5.75;;;19.90;99.90;;;;;;5029547;28;20029;-73
2021/07/27 07:30:11;;;;;;;8.32;5.57;;;19.90;99.90;;;;;;5032382;28;20041;-72
2021/07/27 07:32:37;;;;;;;7.13;5.10;;;20.00;99.90;;;;;;5028716;28;20025;-73
2021/07/27 07:35:04;;;;;;;10.13;6.20;;;20.30;99.90;;;;;;5012469;28;20033;-73
2021/07/27 07:37:30;;;;;;;8.20;5.60;;;20.50;99.90;;;;;;5011289;28;20022;-72
2021/07/27 07:39:55;;;;;;;9.05;5.50;;;20.70;99.90;;;;;;5022583;28;20151;-73
2021/07/27 07:42:21;;;;;;;7.30;5.68;;;20.80;99.90;;;;;;5032297;28;20037;-72
2021/07/27 07:44:46;;;;;;;8.18;5.95;;;20.80;99.90;;;;;;5031963;28;20040;-72
2021/07/27 07:47:12;;;;;;;5.88;5.28;;;20.60;99.90;;;;;;5029031;28;20061;-72
2021/07/27 07:49:37;;;;;;;6.35;5.35;;;20.70;99.90;;;;;;5012144;28;20042;-72
2021/07/27 07:52:03;;;;;;;6.40;5.50;;;20.90;99.90;;;;;;5015449;28;20060;-73
2021/07/27 07:54:31;;;;;;;6.93;5.50;;;21.10;99.90;;;;;;5031799;28;20041;-73
2021/07/27 07:56:57;;;;;;;8.90;5.65;;;21.00;99.90;;;;;;5028807;28;20025;-73
2021/07/27 07:59:22;;;;;;;9.77;5.97;;;21.20;99.90;;;;;;5021755;28;20017;-73
2021/07/27 08:01:49;;;;;;;7.82;5.20;;;21.20;99.90;;;;;;5012153;28;20426;-72
2021/07/27 08:04:15;;;;;;;7.43;5.47;;;21.50;99.90;;;;;;5012274;28;20040;-73
2021/07/27 08:06:41;;;;;;;8.20;5.35;;;21.40;99.90;;;;;;5011980;28;20022;-73
2021/07/27 08:09:06;;;;;;;8.65;5.55;;;21.60;99.90;;;;;;5012054;28;20519;-73
2021/07/27 08:11:32;;;;;;;8.05;5.75;;;21.50;99.90;;;;;;5011996;28;20034;-73
2021/07/27 08:13:58;;;;;;;5.95;5.22;;;21.40;99.90;;;;;;5010729;28;20550;-72
2021/07/27 08:16:24;;;;;;;7.75;5.85;;;21.40;99.90;;;;;;5014528;28;20029;-73
2021/07/27 08:18:50;;;;;;;7.40;5.30;;;21.30;99.90;;;;;;5021105;28;20059;-73
2021/07/27 08:21:15;;;;;;;7.32;5.40;;;21.30;99.90;;;;;;5011891;28;20022;-72
2021/07/27 08:23:45;;;;;;;7.05;5.10;;;21.40;99.90;;;;;;5011956;28;20018;-72
2021/07/27 08:26:11;;;;;;;6.35;5.45;;;21.40;99.90;;;;;;5025095;28;20022;-73
2021/07/27 08:28:38;;;;;;;6.68;5.47;;;21.50;99.90;;;;;;5022777;28;20061;-73
2021/07/27 08:31:04;;;;;;;5.80;4.75;;;21.50;99.90;;;;;;5013828;28;20101;-73
2021/07/27 08:33:29;;;;;;;6.90;5.75;;;21.30;99.90;;;;;;5011947;28;20098;-73
2021/07/27 08:35:55;;;;;;;7.93;5.55;;;21.30;99.90;;;;;;5011637;28;20014;-72
2021/07/27 08:38:20;;;;;;;5.78;5.07;;;21.60;99.90;;;;;;5022846;28;20383;-73
2021/07/27 08:40:50;;;;;;;6.82;5.65;;;21.80;99.90;;;;;;5018132;28;20021;-72
2021/07/27 08:43:17;;;;;;;7.38;5.45;;;21.80;99.90;;;;;;5020372;28;20033;-73
2021/07/27 08:45:43;;;;;;;7.20;5.40;;;21.40;99.90;;;;;;5010336;28;20030;-72
2021/07/27 08:48:09;;;;;;;7.68;5.40;;;21.30;99.90;;;;;;5011816;28;20076;-72
2021/07/27 08:50:35;;;;;;;6.50;5.72;;;21.30;99.90;;;;;;5011396;28;20516;-72
2021/07/27 08:53:01;;;;;;;6.25;5.53;;;21.30;99.90;;;;;;5011687;28;20139;-73
2021/07/27 08:55:26;;;;;;;7.03;5.80;;;21.30;99.90;;;;;;5011532;28;20128;-73
2021/07/27 08:57:54;;;;;;;6.47;5.70;;;21.30;99.90;;;;;;5011692;28;20076;-72
2021/07/27 09:00:19;;;;;;;9.48;6.13;;;21.40;99.90;;;;;;5011524;28;20037;-72
2021/07/27 09:02:45;;;;;;;6.10;5.50;;;21.70;99.90;;;;;;5011375;28;20038;-72
2021/07/27 09:05:12;;;;;;;6.50;5.38;;;22.10;99.90;;;;;;5029157;28;20105;-73
2021/07/27 09:07:38;;;;;;;7.05;5.82;;;22.30;99.90;;;;;;5020074;28;20133;-73
2021/07/27 09:10:17;;;;;;;7.65;5.90;;;22.40;99.90;;;;;;5016205;28;20550;-72
2021/07/27 09:13:00;;;;;;;7.93;5.68;;;22.20;99.90;;;;;;5031209;28;20099;-73
2021/07/27 09:15:37;;;;;;;7.55;5.78;;;22.30;99.90;;;;;;5022285;28;20022;-73
2021/07/27 09:18:03;;;;;;;8.82;5.45;;;22.50;99.90;;;;;;5015195;28;20028;-73
2021/07/27 09:20:40;;;;;;;6.80;6.03;;;22.50;99.90;;;;;;5031232;28;20041;-73
2021/07/27 09:23:23;;;;;;;10.57;6.13;;;23.10;99.90;;;;;;5018675;28;20052;-73
2021/07/27 09:25:51;;;;;;;7.13;6.03;;;22.80;99.90;;;;;;5017470;28;20045;-72
2021/07/27 09:28:19;;;;;;;6.10;5.50;;;23.20;99.90;;;;;;5012785;28;20120;-72
2021/07/27 09:30:46;;;;;;;6.43;5.60;;;23.00;99.90;;;;;;5029193;28;20032;-73
2021/07/27 09:33:14;;;;;;;7.03;5.60;;;23.10;99.90;;;;;;5034522;28;20056;-72
2021/07/27 09:35:41;;;;;;;7.38;5.65;;;23.00;99.90;;;;;;5019319;28;20096;-73
2021/07/27 09:38:06;;;;;;;6.43;5.57;;;22.60;99.90;;;;;;5014729;28;20022;-73
2021/07/27 09:40:34;;;;;;;8.40;6.15;;;22.70;99.90;;;;;;5027828;28;20028;-73
2021/07/27 09:43:01;;;;;;;6.95;6.18;;;22.20;99.90;;;;;;5014679;28;20571;-73
2021/07/27 09:45:27;;;;;;;6.45;5.85;;;22.10;99.90;;;;;;5015697;28;20033;-72
2021/07/27 09:47:56;;;;;;;7.93;5.60;;;21.90;99.90;;;;;;5024944;28;20504;-73
2021/07/27 09:50:24;;;;;;;8.70;6.63;;;22.00;99.90;;;;;;5013946;28;20110;-72
2021/07/27 09:52:50;;;;;;;6.70;5.95;;;22.10;99.90;;;;;;5014333;28;20072;-73
2021/07/27 09:55:16;;;;;;;9.20;6.13;;;22.00;99.90;;;;;;5017572;28;20479;-72
2021/07/27 09:57:41;;;;;;;7.55;5.88;;;22.20;99.90;;;;;;5021162;28;20052;-72
2021/07/27 10:00:07;;;;;;;8.98;5.65;;;22.30;99.90;;;;;;5014199;28;20030;-72
2021/07/27 10:02:40;;;;;;;7.25;5.82;;;22.20;99.90;;;;;;5014251;28;20044;-72
2021/07/27 10:05:08;;;;;;;7.00;5.85;;;22.40;99.90;;;;;;5012704;28;20058;-72
2021/07/27 10:07:34;;;;;;;7.65;6.05;;;22.50;99.90;;;;;;5014160;28;20535;-72
2021/07/27 10:10:07;;;;;;;6.40;5.78;;;22.60;99.90;;;;;;5012812;28;20110;-72
2021/07/27 10:12:35;;;;;;;9.88;5.82;;;22.70;99.90;;;;;;5014094;28;20033;-72
2021/07/27 10:15:15;;;;;;;6.68;5.65;;;22.90;99.90;;;;;;5012456;28;20485;-72
2021/07/27 10:18:07;;;;;;;6.70;5.35;;;23.20;99.90;;;;;;5013971;28;20073;-72
2021/07/27 10:20:33;;;;;;;8.15;5.85;;;23.50;99.90;;;;;;5012717;28;20030;-72
2021/07/27 10:22:59;;;;;;;6.03;5.35;;;23.50;99.90;;;;;;5030841;28;20029;-72
2021/07/27 10:25:25;;;;;;;7.85;6.18;;;23.40;99.90;;;;;;5033283;28;20428;-72
2021/07/27 10:27:52;;;;;;;7.22;5.65;;;23.50;99.90;;;;;;5033472;28;20120;-72
2021/07/27 10:30:31;;;;;;;7.97;6.07;;;23.50;99.90;;;;;;5033434;28;20025;-71
2021/07/27 10:32:57;;;;;;;7.68;5.57;;;23.50;99.90;;;;;;5033438;28;20491;-72
2021/07/27 10:35:34;;;;;;;6.80;5.90;;;23.50;99.90;;;;;;5033299;28;20105;-72
2021/07/27 10:38:10;;;;;;;7.10;6.15;;;23.70;99.90;;;;;;5026220;28;20032;-72
2021/07/27 10:40:36;;;;;;;5.97;5.38;;;23.50;99.90;;;;;;5013414;28;20024;-72
2021/07/27 10:43:07;;;;;;;8.25;6.18;;;23.30;99.90;;;;;;5013546;28;20038;-72
2021/07/27 10:45:33;;;;;;;7.22;5.43;;;23.20;99.90;;;;;;5013239;28;20450;-72
2021/07/27 10:47:58;;;;;;;7.43;6.15;;;22.90;99.90;;;;;;5013477;28;20046;-72
2021/07/27 10:50:26;;;;;;;6.95;5.40;;;23.20;99.90;;;;;;5013054;28;20068;-72
2021/07/27 10:53:18;;;;;;;8.50;5.72;;;23.30;99.90;;;;;;5013188;28;20322;-72
2021/07/27 10:55:49;;;;;;;6.78;6.18;;;23.40;99.90;;;;;;5000248;28;20014;-72
2021/07/27 10:58:16;;;;;;;7.25;6.15;;;23.20;99.90;;;;;;5013250;28;20521;-72
2021/07/27 11:00:42;;;;;;;7.35;6.25;;;23.50;99.90;;;;;;5013128;28;20034;-72
2021/07/27 11:03:07;;;;;;;7.28;6.07;;;23.50;99.90;;;;;;5012997;28;20037;-72
2021/07/27 11:05:34;;;;;;;8.40;6.13;;;23.50;99.90;;;;;;5012908;28;20034;-71
2021/07/27 11:08:00;;;;;;;6.22;5.60;;;23.70;99.90;;;;;;5013039;28;20018;-72
2021/07/27 11:10:27;;;;;;;8.95;6.18;;;23.80;99.90;;;;;;5013070;28;20057;-72
2021/07/27 11:12:55;;;;;;;7.40;5.63;;;24.10;99.90;;;;;;5012894;28;20431;-72
2021/07/27 11:15:23;;;;;;;8.27;6.15;;;24.60;99.90;;;;;;5012744;28;20387;-72
2021/07/27 11:17:59;;;;;;;7.07;6.38;;;24.60;99.90;;;;;;5011471;28;20083;-72
2021/07/27 11:20:30;;;;;;;6.28;5.68;;;24.50;99.90;;;;;;5011540;28;20491;-72
2021/07/27 11:22:58;;;;;;;5.75;5.15;;;24.70;99.90;;;;;;5016619;28;20120;-72
2021/07/27 11:25:26;;;;;;;6.50;5.80;;;25.60;99.90;;;;;;5032187;28;20037;-73
2021/07/27 11:27:53;;;;;;;6.60;5.57;;;26.00;99.90;;;;;;5031127;28;20065;-72
2021/07/27 11:30:21;;;;;;;6.90;5.88;;;25.10;99.90;;;;;;5021002;28;20472;-73
2021/07/27 11:32:52;;;;;;;7.72;6.00;;;24.70;99.90;;;;;;5012279;28;20434;-72
2021/07/27 11:35:26;;;;;;;6.80;6.05;;;24.70;99.90;;;;;;5012374;28;20018;-72
2021/07/27 11:38:04;;;;;;;6.70;5.97;;;24.50;99.90;;;;;;5011267;28;20061;-72
2021/07/27 11:40:30;;;;;;;8.35;6.47;;;24.10;99.90;;;;;;5013969;28;20026;-72
2021/07/27 11:43:05;;;;;;;7.03;6.32;;;24.00;99.90;;;;;;5032108;28;20032;-72
2021/07/27 11:45:39;;;;;;;8.18;6.25;;;23.90;99.90;;;;;;5031807;28;20036;-72
2021/07/27 11:48:06;;;;;;;6.85;5.72;;;23.70;99.90;;;;;;5030759;28;20034;-72
2021/07/27 11:50:37;;;;;;;9.63;5.63;;;23.60;99.90;;;;;;5020784;28;20038;-72
2021/07/27 11:53:07;;;;;;;9.07;5.43;;;23.90;99.90;;;;;;5012158;28;20033;-72
2021/07/27 11:55:35;;;;;;;6.03;5.43;;;24.50;99.90;;;;;;5011967;28;20476;-72
2021/07/27 11:58:01;;;;;;;6.70;5.80;;;24.80;99.90;;;;;;5012311;28;20034;-72
2021/07/27 12:00:28;;;;;;;6.40;5.80;;;24.90;99.90;;;;;;5011958;28;20029;-72
2021/07/27 12:02:53;;;;;;;7.10;5.68;;;24.60;99.90;;;;;;5011387;28;20026;-72
2021/07/27 12:05:19;;;;;;;8.68;5.63;;;24.60;99.90;;;;;;5012005;28;20097;-72
2021/07/27 12:07:44;;;;;;;7.63;6.60;;;24.50;99.90;;;;;;5007956;28;20041;-72
2021/07/27 12:10:12;;;;;;;6.15;5.35;;;24.70;99.90;;;;;;5011749;28;20026;-73
2021/07/27 12:12:38;;;;;;;6.25;5.65;;;25.20;99.90;;;;;;5010571;28;20033;-72
2021/07/27 12:15:04;;;;;;;7.43;6.00;;;24.60;99.90;;;;;;5011549;28;20097;-72
2021/07/27 12:17:30;;;;;;;7.72;5.45;;;24.60;99.90;;;;;;5011768;28;20018;-72
2021/07/27 12:19:56;;;;;;;9.88;5.63;;;24.90;99.90;;;;;;5011876;28;20087;-73
2021/07/27 12:22:21;;;;;;;6.47;5.50;;;24.60;99.90;;;;;;5011835;28;20037;-73
2021/07/27 12:24:47;;;;;;;9.63;5.55;;;24.30;99.90;;;;;;5011760;28;20030;-72
2021/07/27 12:27:12;;;;;;;5.97;5.32;;;24.50;99.90;;;;;;5011908;28;20484;-72
2021/07/27 12:29:38;;;;;;;6.70;5.55;;;24.30;99.90;;;;;;5012467;28;20607;-73
2021/07/27 12:32:04;;;;;;;5.90;5.32;;;23.90;99.90;;;;;;5011179;28;20048;-72
2021/07/27 12:34:30;;;;;;;5.70;5.10;;;23.60;99.90;;;;;;5011592;28;20026;-72
2021/07/27 12:36:55;;;;;;;5.78;5.20;;;23.60;99.90;;;;;;5011825;28;20152;-72
2021/07/27 12:39:23;;;;;;;6.45;5.70;;;23.90;99.90;;;;;;5010225;28;20018;-72
2021/07/27 12:41:52;;;;;;;7.72;5.55;;;24.00;99.90;;;;;;5011760;28;20088;-72
2021/07/27 12:44:17;;;;;;;7.03;5.70;;;23.90;99.90;;;;;;5011808;28;20427;-72
2021/07/27 12:46:44;;;;;;;8.07;5.60;;;24.00;99.90;;;;;;5011654;28;20029;-73
2021/07/27 12:49:13;;;;;;;7.15;5.40;;;24.10;99.90;;;;;;5011396;28;20025;-72
2021/07/27 12:51:39;;;;;;;7.45;5.43;;;24.30;99.90;;;;;;5017693;28;20080;-73
2021/07/27 12:54:05;;;;;;;7.28;5.18;;;24.90;99.90;;;;;;5011613;28;20022;-73
2021/07/27 12:56:32;;;;;;;6.22;5.47;;;25.30;99.90;;;;;;5011479;28;20033;-73
2021/07/27 12:58:58;;;;;;;6.43;5.22;;;25.00;99.90;;;;;;4998622;28;20057;-73
2021/07/27 13:01:24;;;;;;;6.10;5.50;;;24.70;99.90;;;;;;5013142;28;20441;-73
2021/07/27 13:03:49;;;;;;;7.47;5.30;;;24.70;99.90;;;;;;5013907;28;20387;-73
2021/07/27 13:06:15;;;;;;;7.85;5.60;;;24.70;99.90;;;;;;5015129;28;20028;-73